createdAt,value
2019-05-01T00:09:35.947Z,11.49
2019-05-01T00:24:36.071Z,11.55
2019-05-01T00:39:36.269Z,11.43
2019-05-01T00:54:36.458Z,11.49
2019-05-01T01:09:36.581Z,11.72
2019-05-01T01:24:36.808Z,11.83
2019-05-01T01:39:37.044Z,11.85
2019-05-01T01:54:37.353Z,11.86
2019-05-01T02:09:37.710Z,11.83
2019-05-01T02:24:37.889Z,11.79
2019-05-01T02:39:38.309Z,11.80
2019-05-01T02:54:39.260Z,11.83
2019-05-01T03:09:40.986Z,11.65
2019-05-01T03:24:41.709Z,11.40
2019-05-01T03:39:42.169Z,11.36
2019-05-01T03:54:42.797Z,11.28
2019-05-01T04:09:43.183Z,11.24
2019-05-01T04:24:43.483Z,11.21
2019-05-01T04:39:44.085Z,11.02
2019-05-01T04:54:44.319Z,11.14
2019-05-01T05:09:45.152Z,11.28
2019-05-01T05:24:45.963Z,11.32
2019-05-01T05:39:46.287Z,11.21
2019-05-01T05:54:46.429Z,11.17
2019-05-01T06:09:48.441Z,11.64
2019-05-01T06:24:49.915Z,12.17
2019-05-01T06:39:50.116Z,11.85
2019-05-01T06:54:52.059Z,11.98
2019-05-01T07:09:53.095Z,11.58
2019-05-01T07:24:53.315Z,11.72
2019-05-01T07:39:53.535Z,11.82
2019-05-01T07:54:54.210Z,12.28
2019-05-01T08:09:55.081Z,14.21
2019-05-01T08:24:58.710Z,14.25
2019-05-01T08:40:00.329Z,14.54
2019-05-01T08:55:04.243Z,15.09
2019-05-01T09:10:08.970Z,15.07
2019-05-01T09:25:09.168Z,15.38
2019-05-01T09:40:10.420Z,16.17
2019-05-01T09:55:11.119Z,16.67
2019-05-01T10:10:11.324Z,18.80
2019-05-01T10:25:12.345Z,18.84
2019-05-01T10:40:13.769Z,19.66
2019-05-01T10:55:14.422Z,19.94
2019-05-01T11:10:14.844Z,19.96
2019-05-01T11:25:15.080Z,20.20
2019-05-01T11:40:15.279Z,19.94
2019-05-01T11:55:15.416Z,19.16
2019-05-01T12:10:15.709Z,20.55
2019-05-01T12:25:15.829Z,21.14
2019-05-01T12:40:16.059Z,22.07
2019-05-01T12:55:16.279Z,23.25
2019-05-01T13:10:16.701Z,24.18
2019-05-01T13:25:16.893Z,22.39
2019-05-01T13:40:17.129Z,24.20
2019-05-01T13:55:17.536Z,23.22
2019-05-01T14:10:17.626Z,23.69
2019-05-01T14:25:18.014Z,24.39
2019-05-01T14:40:18.255Z,23.94
2019-05-01T14:55:19.191Z,24.49
2019-05-01T15:10:19.421Z,23.58
2019-05-01T15:25:19.667Z,23.02
2019-05-01T15:40:20.233Z,22.07
2019-05-01T15:55:20.465Z,21.69
2019-05-01T16:10:20.616Z,20.59
2019-05-01T16:25:21.108Z,19.92
2019-05-01T16:40:21.263Z,18.55
2019-05-01T16:55:21.532Z,17.44
2019-05-01T17:10:22.053Z,16.73
2019-05-01T17:25:22.188Z,16.09
2019-05-01T17:40:22.596Z,15.39
2019-05-01T17:55:22.849Z,14.83
2019-05-01T18:10:23.159Z,14.40
2019-05-01T18:25:23.567Z,13.96
2019-05-01T18:40:23.747Z,13.32
2019-05-01T18:55:25.901Z,12.85
2019-05-01T19:10:26.410Z,12.37
2019-05-01T19:25:26.756Z,11.88
2019-05-01T19:40:30.787Z,11.44
2019-05-01T19:55:32.250Z,11.25
2019-05-01T20:10:32.354Z,10.76
2019-05-01T20:25:32.581Z,10.45
2019-05-01T20:40:32.806Z,10.20
2019-05-01T20:55:34.057Z,10.01
2019-05-01T21:10:35.936Z,9.84
2019-05-01T21:25:36.411Z,9.58
2019-05-01T21:40:40.663Z,9.54
2019-05-01T21:55:40.835Z,9.32
2019-05-01T22:10:51.471Z,9.11
2019-05-01T22:25:47.484Z,8.81
2019-05-01T22:40:47.703Z,8.50
2019-05-01T22:55:47.920Z,8.29
2019-05-01T23:10:48.585Z,7.92
2019-05-01T23:25:48.569Z,7.64
2019-05-01T23:40:50.948Z,7.43
2019-05-01T23:55:54.536Z,7.21
